createdAt,value
2022-10-10T00:01:17.640Z,6.07
2022-10-10T00:03:45.980Z,7.28
2022-10-10T00:06:15.393Z,4.72
2022-10-10T00:08:43.959Z,4.95
2022-10-10T00:11:13.437Z,4.97
2022-10-10T00:13:43.164Z,4.78
2022-10-10T00:16:11.879Z,4.47
2022-10-10T00:18:40.765Z,5.80
2022-10-10T00:21:09.653Z,4.30
2022-10-10T00:23:37.500Z,6.05
2022-10-10T00:26:08.990Z,5.38
2022-10-10T00:28:38.945Z,5.13
2022-10-10T00:31:09.416Z,5.97
2022-10-10T00:33:37.870Z,6.45
2022-10-10T00:36:06.307Z,6.63
2022-10-10T00:38:34.185Z,11.20
2022-10-10T00:41:02.294Z,8.07
2022-10-10T00:43:30.999Z,10.00
2022-10-10T00:45:58.881Z,10.23
2022-10-10T00:48:32.205Z,13.68
2022-10-10T00:51:04.185Z,12.68
2022-10-10T00:53:35.587Z,11.38
2022-10-10T00:56:04.996Z,13.23
2022-10-10T00:58:33.581Z,13.13
2022-10-10T01:01:01.422Z,11.50
2022-10-10T01:03:30.616Z,16.33
2022-10-10T01:05:58.543Z,16.23
2022-10-10T01:08:26.573Z,12.63
2022-10-10T01:11:06.329Z,15.75
2022-10-10T01:13:40.592Z,11.23
2022-10-10T01:16:15.682Z,13.20
2022-10-10T01:18:54.968Z,11.80
2022-10-10T01:21:33.262Z,11.93
2022-10-10T01:24:26.759Z,11.23
2022-10-10T01:27:17.256Z,10.70
2022-10-10T01:29:50.380Z,16.17
2022-10-10T01:32:24.795Z,11.55
2022-10-10T01:35:02.588Z,14.82
2022-10-10T01:37:40.480Z,14.70
2022-10-10T01:40:14.309Z,11.85
2022-10-10T01:42:46.530Z,12.82
2022-10-10T01:45:15.770Z,17.13
2022-10-10T01:47:44.317Z,15.50
2022-10-10T01:50:16.135Z,16.48
2022-10-10T01:52:53.705Z,16.52
2022-10-10T01:55:36.988Z,20.73
2022-10-10T01:58:18.008Z,15.25
2022-10-10T02:00:52.643Z,13.98
2022-10-10T02:03:23.491Z,16.02
2022-10-10T02:05:58.157Z,15.32
2022-10-10T02:08:32.417Z,16.80
2022-10-10T02:11:02.919Z,15.05
2022-10-10T02:13:36.373Z,18.90
2022-10-10T02:16:10.143Z,14.63
2022-10-10T02:18:39.318Z,15.52
2022-10-10T02:21:09.603Z,16.15
2022-10-10T02:23:37.853Z,16.83
2022-10-10T02:26:06.003Z,22.38
2022-10-10T02:28:39.519Z,17.13
2022-10-10T02:31:12.784Z,15.57
2022-10-10T02:33:45.576Z,16.40
2022-10-10T02:36:14.725Z,17.38
2022-10-10T02:38:44.733Z,24.75
2022-10-10T02:41:14.341Z,18.58
2022-10-10T02:43:42.547Z,19.52
2022-10-10T02:46:14.512Z,17.60
2022-10-10T02:48:42.617Z,20.52
2022-10-10T02:51:11.492Z,17.15
2022-10-10T02:53:39.795Z,17.15
2022-10-10T02:56:08.233Z,17.83
2022-10-10T02:58:36.066Z,19.42
2022-10-10T03:01:04.077Z,17.73
2022-10-10T03:03:33.439Z,15.95
2022-10-10T03:06:01.268Z,15.57
2022-10-10T03:08:29.091Z,15.60
2022-10-10T03:10:58.562Z,19.52
2022-10-10T03:13:26.942Z,18.77
2022-10-10T03:15:55.580Z,16.08
2022-10-10T03:18:23.625Z,20.48
2022-10-10T03:20:53.913Z,17.50
2022-10-10T03:23:22.122Z,19.65
2022-10-10T03:25:50.410Z,19.15
2022-10-10T03:28:18.455Z,17.58
2022-10-10T03:30:46.452Z,23.50
2022-10-10T03:33:14.273Z,19.73
2022-10-10T03:35:42.307Z,20.88
2022-10-10T03:38:12.307Z,17.17
2022-10-10T03:40:41.844Z,16.15
2022-10-10T03:43:09.740Z,16.75
2022-10-10T03:45:37.690Z,17.85
2022-10-10T03:48:06.483Z,16.33
2022-10-10T03:50:34.329Z,14.48
2022-10-10T03:53:02.261Z,17.00
2022-10-10T03:55:31.501Z,17.73
2022-10-10T03:57:59.382Z,16.70
2022-10-10T04:00:27.348Z,15.70
2022-10-10T04:02:55.213Z,15.60
2022-10-10T04:05:23.073Z,15.52
2022-10-10T04:07:50.871Z,15.45
2022-10-10T04:10:18.995Z,16.48
2022-10-10T04:12:48.381Z,14.55
2022-10-10T04:15:16.450Z,16.52
2022-10-10T04:17:44.298Z,14.63
2022-10-10T04:20:12.117Z,14.63
2022-10-10T04:22:40.719Z,14.75
2022-10-10T04:25:09.182Z,14.50
2022-10-10T04:27:37.010Z,15.13
2022-10-10T04:30:07.986Z,15.05
2022-10-10T04:32:35.922Z,13.50
2022-10-10T04:35:03.907Z,15.30
2022-10-10T04:37:31.891Z,14.88
2022-10-10T04:39:59.699Z,18.55
2022-10-10T04:42:27.549Z,17.23
2022-10-10T04:44:55.359Z,18.13
2022-10-10T04:47:25.009Z,17.73
2022-10-10T04:49:52.796Z,17.67
2022-10-10T04:52:20.582Z,14.75
2022-10-10T04:54:48.407Z,16.05
2022-10-10T04:57:16.252Z,17.60
2022-10-10T04:59:45.090Z,17.02
2022-10-10T05:02:12.910Z,17.60
2022-10-10T05:04:42.189Z,16.15
2022-10-10T05:07:09.989Z,16.58
2022-10-10T05:09:37.845Z,17.08
2022-10-10T05:12:05.901Z,13.77
2022-10-10T05:14:33.756Z,15.38
2022-10-10T05:17:01.756Z,15.02
2022-10-10T05:19:29.587Z,14.00
2022-10-10T05:21:58.764Z,14.23
2022-10-10T05:24:26.953Z,12.50
2022-10-10T05:26:54.809Z,12.95
2022-10-10T05:29:22.667Z,13.15
2022-10-10T05:31:50.486Z,14.18
2022-10-10T05:34:18.420Z,12.95
2022-10-10T05:36:46.230Z,12.60
2022-10-10T05:39:15.532Z,17.50
2022-10-10T05:41:43.446Z,12.40
2022-10-10T05:44:11.617Z,14.13
2022-10-10T05:46:39.439Z,12.15
2022-10-10T05:49:07.339Z,20.88
2022-10-10T05:51:35.257Z,13.55
2022-10-10T05:54:05.065Z,17.23
2022-10-10T05:56:34.225Z,13.23
2022-10-10T05:59:02.039Z,15.85
2022-10-10T06:01:29.856Z,13.38
2022-10-10T06:03:57.667Z,16.98
2022-10-10T06:06:26.597Z,13.73
2022-10-10T06:08:54.435Z,16.10
2022-10-10T06:11:23.557Z,14.98
2022-10-10T06:13:54.189Z,14.73
2022-10-10T06:16:22.516Z,15.57
2022-10-10T06:18:50.361Z,20.40
2022-10-10T06:21:19.370Z,13.63
2022-10-10T06:23:47.283Z,17.98
2022-10-10T06:26:15.215Z,16.40
2022-10-10T06:28:43.098Z,18.75
2022-10-10T06:31:14.761Z,17.98
2022-10-10T06:33:45.357Z,17.38
2022-10-10T06:36:14.666Z,15.13
2022-10-10T06:38:44.017Z,16.48
2022-10-10T06:41:12.700Z,19.30
2022-10-10T06:43:41.329Z,18.00
2022-10-10T06:46:09.973Z,17.15
2022-10-10T06:48:39.183Z,20.90
2022-10-10T06:51:09.048Z,15.05
2022-10-10T06:53:37.344Z,17.42
2022-10-10T06:56:06.432Z,10.88
2022-10-10T06:58:34.558Z,10.85
2022-10-10T07:01:04.509Z,14.00
2022-10-10T07:03:32.700Z,15.75
2022-10-10T07:06:03.235Z,13.05
2022-10-10T07:08:31.819Z,11.23
2022-10-10T07:10:59.700Z,10.52
2022-10-10T07:13:27.656Z,9.30
2022-10-10T07:15:55.490Z,8.68
2022-10-10T07:18:23.398Z,8.68
2022-10-10T07:20:51.247Z,9.85
2022-10-10T07:23:20.419Z,8.30
2022-10-10T07:25:48.287Z,8.20
2022-10-10T07:28:16.213Z,8.05
2022-10-10T07:30:45.729Z,8.23
2022-10-10T07:33:14.061Z,8.98
2022-10-10T07:35:42.479Z,7.70
2022-10-10T07:38:12.405Z,7.80
2022-10-10T07:40:42.228Z,7.65
2022-10-10T07:43:10.158Z,6.85
2022-10-10T07:45:38.319Z,7.18
2022-10-10T07:48:06.685Z,6.32
2022-10-10T07:50:34.525Z,6.80
2022-10-10T07:53:02.433Z,6.90
2022-10-10T07:55:30.233Z,6.40
2022-10-10T07:58:00.136Z,8.02
2022-10-10T08:00:28.157Z,5.85
2022-10-10T08:02:56.009Z,5.90
2022-10-10T08:05:23.810Z,15.82
2022-10-10T08:07:51.946Z,7.90
2022-10-10T08:10:20.659Z,9.55
2022-10-10T08:12:49.217Z,6.60
2022-10-10T08:15:18.518Z,5.22
2022-10-10T08:17:46.373Z,6.25
2022-10-10T08:20:14.201Z,9.00
2022-10-10T08:22:42.067Z,5.30
2022-10-10T08:25:10.351Z,4.70
2022-10-10T08:27:38.199Z,5.70
2022-10-10T08:30:07.133Z,6.03
2022-10-10T08:32:36.293Z,6.18
2022-10-10T08:35:04.255Z,4.72
2022-10-10T08:37:37.133Z,7.30
2022-10-10T08:40:06.163Z,7.35
2022-10-10T08:42:41.991Z,4.25
2022-10-10T08:45:17.606Z,6.63
2022-10-10T08:47:52.287Z,5.50
2022-10-10T08:50:24.642Z,6.75
2022-10-10T08:55:30.820Z,5.15
2022-10-10T08:58:01.921Z,6.57
2022-10-10T09:00:35.538Z,5.20
2022-10-10T09:03:14.000Z,5.22
2022-10-10T09:05:56.343Z,4.93
2022-10-10T09:08:38.141Z,5.63
2022-10-10T09:11:18.120Z,7.05
2022-10-10T09:13:53.381Z,5.25
2022-10-10T09:16:27.194Z,10.55
2022-10-10T09:19:06.051Z,4.97
2022-10-10T09:21:37.533Z,4.97
2022-10-10T09:24:12.222Z,5.53
2022-10-10T09:26:47.352Z,7.10
2022-10-10T09:29:29.057Z,4.90
2022-10-10T09:32:02.054Z,5.05
2022-10-10T09:34:37.006Z,6.43
2022-10-10T09:37:16.357Z,9.00
2022-10-10T09:39:52.170Z,5.22
2022-10-10T09:42:27.785Z,8.05
2022-10-10T09:44:55.638Z,5.28
2022-10-10T09:47:23.514Z,6.40
2022-10-10T09:49:52.815Z,8.18
2022-10-10T09:52:28.200Z,5.50
2022-10-10T09:55:00.805Z,3.75
2022-10-10T09:57:33.577Z,12.55
2022-10-10T10:00:12.359Z,3.90
2022-10-10T10:02:40.232Z,3.75
2022-10-10T10:05:20.141Z,5.70
2022-10-10T10:07:49.850Z,5.68
2022-10-10T10:10:21.377Z,6.20
2022-10-10T10:12:50.031Z,5.60
2022-10-10T10:15:20.096Z,5.93
2022-10-10T10:17:48.030Z,6.10
2022-10-10T10:20:36.406Z,5.70
2022-10-10T10:23:04.366Z,4.22
2022-10-10T10:25:35.389Z,7.70
2022-10-10T10:28:17.925Z,9.05
2022-10-10T10:30:46.708Z,5.10
2022-10-10T10:33:25.178Z,3.97
2022-10-10T10:36:05.574Z,5.63
2022-10-10T10:38:43.368Z,5.40
2022-10-10T10:41:20.750Z,4.18
2022-10-10T10:44:13.296Z,3.70
2022-10-10T10:49:18.802Z,4.72
2022-10-10T10:52:30.490Z,3.05
2022-10-10T10:55:15.690Z,6.57
2022-10-10T10:58:16.368Z,5.07
2022-10-10T11:01:23.405Z,3.17
2022-10-10T11:05:20.936Z,5.93
2022-10-10T11:07:17.962Z,9.05
2022-10-10T11:09:54.992Z,3.55
2022-10-10T11:12:34.269Z,5.43
2022-10-10T11:15:06.126Z,4.50
2022-10-10T11:17:39.579Z,5.40
2022-10-10T11:20:17.710Z,6.38
2022-10-10T11:22:50.965Z,5.22
2022-10-10T11:25:26.086Z,3.75
2022-10-10T11:28:00.001Z,4.60
2022-10-10T11:30:31.957Z,5.35
2022-10-10T11:33:03.791Z,3.25
2022-10-10T11:35:37.327Z,4.85
2022-10-10T11:38:15.812Z,3.58
2022-10-10T11:40:49.286Z,4.47
2022-10-10T11:43:34.891Z,5.35
2022-10-10T11:46:09.845Z,3.53
2022-10-10T11:48:46.597Z,5.85
2022-10-10T11:51:25.739Z,4.68
2022-10-10T11:54:00.272Z,3.58
2022-10-10T11:56:36.499Z,4.85
2022-10-10T11:59:14.327Z,3.72
2022-10-10T12:01:47.787Z,3.40
2022-10-10T12:04:15.774Z,5.78
2022-10-10T12:06:50.682Z,3.75
2022-10-10T12:09:24.719Z,2.20
2022-10-10T12:11:57.670Z,4.25
2022-10-10T12:14:29.607Z,3.10
2022-10-10T12:16:57.852Z,3.85
2022-10-10T12:19:27.669Z,6.25
2022-10-10T12:22:01.097Z,5.22
2022-10-10T12:24:30.424Z,4.45
2022-10-10T12:27:44.421Z,5.63
2022-10-10T12:30:25.878Z,2.85
2022-10-10T12:32:55.252Z,6.13
2022-10-10T12:35:36.681Z,4.95
2022-10-10T12:38:23.355Z,2.95
2022-10-10T12:41:10.509Z,4.00
2022-10-10T12:43:43.736Z,4.82
2022-10-10T12:46:29.659Z,4.03
2022-10-10T12:49:14.618Z,3.08
2022-10-10T12:51:43.584Z,4.00
2022-10-10T12:54:24.942Z,3.30
2022-10-10T12:56:59.825Z,6.57
2022-10-10T12:59:29.002Z,4.78
2022-10-10T13:01:59.264Z,3.75
2022-10-10T13:04:28.421Z,3.22
2022-10-10T13:06:58.552Z,6.53
2022-10-10T13:09:33.884Z,4.55
2022-10-10T13:12:04.847Z,4.78
2022-10-10T13:14:42.074Z,4.03
2022-10-10T13:17:24.540Z,3.58
2022-10-10T13:19:53.266Z,4.10
2022-10-10T13:22:22.167Z,8.65
2022-10-10T13:24:51.485Z,6.40
2022-10-10T13:27:22.280Z,4.75
2022-10-10T13:29:52.054Z,4.22
2022-10-10T13:32:23.032Z,6.35
2022-10-10T13:34:54.085Z,5.38
2022-10-10T13:37:22.446Z,2.75
2022-10-10T13:39:52.061Z,5.72
2022-10-10T13:42:29.557Z,4.60
2022-10-10T13:45:00.254Z,5.00
2022-10-10T13:47:45.856Z,6.03
2022-10-10T13:50:21.431Z,3.97
2022-10-10T13:52:49.310Z,4.93
2022-10-10T13:55:25.026Z,3.78
2022-10-10T13:57:58.227Z,4.97
2022-10-10T14:00:32.706Z,3.63
2022-10-10T14:03:00.744Z,5.20
2022-10-10T14:05:31.913Z,6.47
2022-10-10T14:08:00.647Z,8.63
2022-10-10T14:10:33.635Z,6.05
2022-10-10T14:13:02.174Z,4.75
2022-10-10T14:15:44.070Z,5.47
2022-10-10T14:18:17.248Z,6.72
2022-10-10T14:20:45.172Z,5.75
2022-10-10T14:23:13.473Z,6.47
2022-10-10T14:25:42.292Z,9.93
2022-10-10T14:28:16.921Z,7.95
2022-10-10T14:30:46.521Z,4.50
2022-10-10T14:33:15.787Z,5.68
2022-10-10T14:35:44.663Z,4.63
2022-10-10T14:38:15.019Z,3.95
2022-10-10T14:40:44.222Z,5.80
2022-10-10T14:43:12.328Z,4.25
2022-10-10T14:45:40.580Z,4.32
2022-10-10T14:48:11.393Z,8.27
2022-10-10T14:50:43.919Z,6.80
2022-10-10T14:53:11.829Z,6.93
2022-10-10T14:55:43.104Z,4.35
2022-10-10T14:58:15.146Z,5.95
2022-10-10T15:00:43.205Z,5.13
2022-10-10T15:03:12.652Z,5.00
2022-10-10T15:05:41.138Z,6.10
2022-10-10T15:08:09.127Z,6.55
2022-10-10T15:10:36.986Z,7.53
2022-10-10T15:13:04.851Z,5.32
2022-10-10T15:15:32.817Z,6.97
2022-10-10T15:18:01.207Z,15.50
2022-10-10T15:20:31.726Z,7.40
2022-10-10T15:23:00.590Z,4.43
2022-10-10T15:25:33.664Z,4.30
2022-10-10T15:28:03.075Z,5.55
2022-10-10T15:30:32.248Z,3.63
2022-10-10T15:33:00.064Z,5.65
2022-10-10T15:35:36.211Z,8.57
2022-10-10T15:38:17.717Z,6.53
2022-10-10T15:40:45.516Z,5.60
2022-10-10T15:43:15.862Z,5.25
2022-10-10T15:45:55.355Z,4.90
2022-10-10T15:48:24.354Z,5.57
2022-10-10T15:50:52.361Z,5.55
2022-10-10T15:53:21.566Z,6.38
2022-10-10T15:55:49.497Z,6.28
2022-10-10T15:58:17.324Z,9.20
2022-10-10T16:00:45.740Z,8.95
2022-10-10T16:03:13.658Z,6.15
2022-10-10T16:05:42.937Z,8.48
2022-10-10T16:08:12.314Z,5.70
2022-10-10T16:10:43.181Z,6.65
2022-10-10T16:13:11.914Z,10.02
2022-10-10T16:15:39.788Z,6.93
2022-10-10T16:18:07.612Z,8.98
2022-10-10T16:20:35.448Z,8.60
2022-10-10T16:23:03.265Z,5.60
2022-10-10T16:25:31.169Z,6.40
2022-10-10T16:28:00.340Z,10.57
2022-10-10T16:30:28.218Z,5.88
2022-10-10T16:32:56.067Z,6.35
2022-10-10T16:35:23.965Z,4.82
2022-10-10T16:37:51.813Z,10.27
2022-10-10T16:40:19.812Z,6.28
2022-10-10T16:42:47.696Z,13.13
2022-10-10T16:45:16.973Z,7.45
2022-10-10T16:47:44.819Z,6.85
2022-10-10T16:50:12.922Z,6.93
2022-10-10T16:52:40.796Z,5.68
2022-10-10T16:55:09.497Z,6.93
2022-10-10T16:57:37.797Z,5.03
2022-10-10T17:00:07.560Z,9.98
2022-10-10T17:02:38.840Z,10.60
2022-10-10T17:05:07.679Z,5.60
2022-10-10T17:07:35.843Z,6.72
2022-10-10T17:10:03.856Z,10.82
2022-10-10T17:12:31.686Z,7.35
2022-10-10T17:14:59.533Z,6.55
2022-10-10T17:17:27.334Z,5.80
2022-10-10T17:19:56.464Z,7.72
2022-10-10T17:22:24.295Z,5.13
2022-10-10T17:24:52.112Z,6.15
2022-10-10T17:27:20.541Z,3.90
2022-10-10T17:29:48.454Z,6.65
2022-10-10T17:32:16.720Z,5.97
2022-10-10T17:34:44.534Z,5.38
2022-10-10T17:37:13.959Z,7.40
2022-10-10T17:39:41.766Z,8.60
2022-10-10T17:42:09.684Z,9.18
2022-10-10T17:44:43.322Z,8.43
2022-10-10T17:47:14.970Z,7.65
2022-10-10T17:49:46.435Z,7.78
2022-10-10T17:52:20.943Z,4.40
2022-10-10T17:54:49.411Z,6.82
2022-10-10T17:57:17.353Z,6.82
2022-10-10T17:59:45.149Z,6.07
2022-10-10T18:02:16.433Z,5.25
2022-10-10T18:04:44.421Z,9.10
2022-10-10T18:07:12.798Z,7.22
2022-10-10T18:09:41.979Z,5.95
2022-10-10T18:12:09.823Z,10.48
2022-10-10T18:14:37.643Z,6.68
2022-10-10T18:17:05.476Z,8.38
2022-10-10T18:19:33.406Z,7.18
2022-10-10T18:22:01.249Z,11.52
2022-10-10T18:24:29.122Z,7.93
2022-10-10T18:26:58.333Z,11.45
2022-10-10T18:29:26.366Z,8.48
2022-10-10T18:31:54.217Z,7.05
2022-10-10T18:34:22.103Z,9.68
2022-10-10T18:36:50.547Z,9.32
2022-10-10T18:39:19.776Z,8.30
2022-10-10T18:41:48.018Z,9.13
2022-10-10T18:44:20.147Z,11.57
2022-10-10T18:46:49.816Z,10.38
2022-10-10T18:49:17.629Z,8.85
2022-10-10T18:51:45.509Z,11.50
2022-10-10T18:54:16.160Z,7.68
2022-10-10T18:56:45.036Z,7.82
2022-10-10T18:59:15.304Z,9.32
2022-10-10T19:01:46.438Z,8.73
2022-10-10T19:04:16.211Z,9.50
2022-10-10T19:06:44.971Z,7.03
2022-10-10T19:09:15.496Z,8.88
2022-10-10T19:11:45.899Z,9.15
2022-10-10T19:14:16.493Z,7.57
2022-10-10T19:16:49.148Z,7.45
2022-10-10T19:19:19.618Z,8.60
2022-10-10T19:21:48.745Z,6.97
2022-10-10T19:24:20.733Z,8.80
2022-10-10T19:26:53.117Z,8.20
2022-10-10T19:29:21.443Z,10.60
2022-10-10T19:31:50.898Z,6.30
2022-10-10T19:34:18.739Z,8.90
2022-10-10T19:36:46.789Z,7.47
2022-10-10T19:39:14.683Z,6.65
2022-10-10T19:41:42.509Z,7.60
2022-10-10T19:44:10.313Z,7.05
2022-10-10T19:46:38.209Z,10.38
2022-10-10T19:49:07.631Z,7.18
2022-10-10T19:51:35.505Z,9.88
2022-10-10T19:54:03.374Z,9.60
2022-10-10T19:56:31.251Z,8.02
2022-10-10T19:59:00.290Z,8.82
2022-10-10T20:01:30.443Z,10.60
2022-10-10T20:03:59.097Z,8.70
2022-10-10T20:06:28.635Z,9.90
2022-10-10T20:08:56.934Z,8.68
2022-10-10T20:11:26.209Z,13.55
2022-10-10T20:13:55.410Z,6.80
2022-10-10T20:16:24.180Z,9.13
2022-10-10T20:18:52.281Z,8.18
2022-10-10T20:21:23.705Z,7.45
2022-10-10T20:23:54.426Z,7.97
2022-10-10T20:26:23.988Z,9.95
2022-10-10T20:28:52.682Z,11.65
2022-10-10T20:31:22.349Z,9.65
2022-10-10T20:33:52.047Z,11.65
2022-10-10T20:36:21.183Z,9.15
2022-10-10T20:38:54.403Z,10.63
2022-10-10T20:41:23.374Z,8.88
2022-10-10T20:43:51.341Z,8.38
2022-10-10T20:46:19.201Z,9.55
2022-10-10T20:48:47.077Z,8.55
2022-10-10T20:51:15.226Z,7.32
2022-10-10T20:53:45.996Z,9.60
2022-10-10T20:56:15.318Z,10.18
2022-10-10T20:58:44.789Z,9.73
2022-10-10T21:01:14.496Z,9.32
2022-10-10T21:03:46.785Z,16.98
2022-10-10T21:08:43.261Z,8.32
2022-10-10T21:11:13.279Z,9.00
2022-10-10T21:13:44.550Z,9.73
2022-10-10T21:16:14.175Z,9.07
2022-10-10T21:18:57.113Z,10.68
2022-10-10T21:21:26.180Z,12.63
2022-10-10T21:23:56.482Z,13.20
2022-10-10T21:26:26.037Z,10.43
2022-10-10T21:28:55.948Z,10.10
2022-10-10T21:31:25.894Z,9.80
2022-10-10T21:33:54.166Z,9.68
2022-10-10T21:36:22.692Z,10.60
2022-10-10T21:38:50.515Z,8.45
2022-10-10T21:41:20.695Z,8.65
2022-10-10T21:43:52.134Z,10.23
2022-10-10T21:46:24.286Z,6.77
2022-10-10T21:48:53.001Z,8.45
2022-10-10T21:51:21.466Z,8.05
2022-10-10T21:53:49.828Z,5.85
2022-10-10T21:56:18.723Z,6.55
2022-10-10T21:58:46.737Z,7.60
2022-10-10T22:01:16.899Z,9.00
2022-10-10T22:03:47.383Z,8.48
2022-10-10T22:06:17.753Z,9.73
2022-10-10T22:08:46.817Z,7.95
2022-10-10T22:11:16.771Z,7.90
2022-10-10T22:13:44.637Z,9.48
2022-10-10T22:16:13.046Z,9.25
2022-10-10T22:18:41.427Z,8.93
2022-10-10T22:21:12.678Z,10.10
2022-10-10T22:23:40.964Z,9.00
2022-10-10T22:26:10.236Z,11.38
2022-10-10T22:28:38.257Z,11.20
2022-10-10T22:31:07.038Z,12.27
2022-10-10T22:33:35.135Z,9.73
2022-10-10T22:36:04.822Z,9.70
2022-10-10T22:38:34.342Z,7.80
2022-10-10T22:41:02.144Z,9.20
2022-10-10T22:43:29.992Z,7.05
2022-10-10T22:45:57.861Z,8.75
2022-10-10T22:48:26.372Z,7.18
2022-10-10T22:51:00.505Z,8.75
2022-10-10T22:53:28.672Z,9.05
2022-10-10T22:55:58.172Z,7.10
2022-10-10T22:58:26.441Z,9.55
2022-10-10T23:00:54.375Z,7.45
2022-10-10T23:03:22.310Z,9.48
2022-10-10T23:05:50.143Z,9.32
2022-10-10T23:08:17.944Z,8.35
2022-10-10T23:10:45.788Z,5.95
2022-10-10T23:13:14.951Z,9.85
2022-10-10T23:15:42.794Z,7.60
2022-10-10T23:18:10.614Z,9.95
2022-10-10T23:20:38.462Z,11.45
2022-10-10T23:23:06.276Z,8.55
2022-10-10T23:25:34.129Z,8.50
2022-10-10T23:28:01.956Z,8.52
2022-10-10T23:30:31.192Z,7.68
2022-10-10T23:32:59.030Z,9.90
2022-10-10T23:35:26.988Z,9.00
2022-10-10T23:37:55.310Z,8.18
2022-10-10T23:40:23.184Z,6.53
2022-10-10T23:42:51.106Z,6.85
2022-10-10T23:45:19.170Z,6.95
2022-10-10T23:47:48.484Z,7.55
2022-10-10T23:50:16.358Z,6.47
2022-10-10T23:52:44.230Z,7.97
2022-10-10T23:55:12.097Z,6.93
2022-10-10T23:57:39.926Z,6.22
